Time;durP1;ratioP1;P1;durP2;ratioP2;P2;SDS_P1;SDS_P2;PMS_P1;PMS_P2;Temp;Humidity;BMP_temperature;BMP_pressure;BME280_temperature;BME280_humidity;BME280_pressure;Samples;Min_cycle;Max_cycle;Signal;HPM_P1;HPM_P2
2023/04/22 00:03:50;;;;;;;19.07;15.07;;;7.50;99.90;;;;;;2610013;54;20568;-73
2023/04/22 00:07:05;;;;;;;18.23;16.00;;;7.40;99.90;;;;;;2610306;54;20410;-73
2023/04/22 00:12:53;;;;;;;18.30;14.53;;;7.40;99.90;;;;;;2610718;54;20419;-73
2023/04/22 00:18:41;;;;;;;19.13;15.77;;;7.70;99.90;;;;;;2613204;54;20138;-73
2023/04/22 00:24:29;;;;;;;18.60;16.17;;;7.60;99.90;;;;;;2610198;54;20387;-72
2023/04/22 00:30:16;;;;;;;23.73;17.53;;;7.60;99.90;;;;;;2610106;54;20661;-73
2023/04/22 00:36:04;;;;;;;21.43;17.13;;;7.50;99.90;;;;;;2610572;54;20158;-73
2023/04/22 00:41:52;;;;;;;20.97;16.57;;;7.40;99.90;;;;;;2609894;54;20375;-72
2023/04/22 00:47:41;;;;;;;18.20;16.17;;;7.40;99.90;;;;;;2610355;54;20162;-72
2023/04/22 00:53:28;;;;;;;20.10;16.93;;;7.40;99.90;;;;;;2611681;54;20383;-72
2023/04/22 00:59:16;;;;;;;21.60;17.80;;;7.40;99.90;;;;;;2609861;39;20527;-74
2023/04/22 01:02:35;;;;;;;22.00;17.27;;;7.50;99.90;;;;;;2610752;54;20432;-74
2023/04/22 01:05:02;;;;;;;24.13;17.23;;;7.60;99.90;;;;;;2608813;54;20197;-73
2023/04/22 01:10:50;;;;;;;20.07;16.23;;;7.90;99.90;;;;;;2610572;39;20784;-74
2023/04/22 01:16:39;;;;;;;18.53;15.87;;;8.30;99.90;;;;;;2611349;54;20133;-74
2023/04/22 01:22:34;;;;;;;20.07;14.87;;;8.40;99.90;;;;;;2610825;54;20428;-73
2023/04/22 01:28:22;;;;;;;16.77;12.70;;;8.50;99.90;;;;;;2609750;54;20398;-75
2023/04/22 01:34:10;;;;;;;15.60;14.00;;;8.50;99.90;;;;;;2610379;54;20484;-73
2023/04/22 01:39:59;;;;;;;17.70;14.40;;;8.50;99.90;;;;;;2610718;54;20403;-73
2023/04/22 01:45:46;;;;;;;17.80;13.60;;;8.60;99.90;;;;;;2609516;54;20406;-74
2023/04/22 01:51:34;;;;;;;15.90;13.70;;;8.60;99.90;;;;;;2610024;54;20154;-73
2023/04/22 01:57:22;;;;;;;17.27;13.20;;;8.40;99.90;;;;;;2610402;39;20657;-73
2023/04/22 02:07:06;;;;;;;19.57;14.90;;;8.30;99.90;;;;;;2610553;54;20395;-73
2023/04/22 02:12:54;;;;;;;18.00;14.40;;;8.30;99.90;;;;;;2610241;54;20503;-74
2023/04/22 02:18:42;;;;;;;17.17;15.10;;;8.10;99.90;;;;;;2613067;54;20138;-73
2023/04/22 02:24:30;;;;;;;23.93;16.90;;;8.20;99.90;;;;;;2609402;54;20134;-73
2023/04/22 02:30:18;;;;;;;26.20;20.40;;;8.30;99.90;;;;;;2610210;54;20387;-74
2023/04/22 02:36:06;;;;;;;21.97;19.00;;;8.20;99.90;;;;;;2610368;54;20122;-73
2023/04/22 02:41:53;;;;;;;28.20;21.50;;;8.10;99.90;;;;;;2609590;54;20218;-73
2023/04/22 02:47:41;;;;;;;23.83;19.00;;;8.10;99.90;;;;;;2609766;54;20139;-74
2023/04/22 02:53:29;;;;;;;27.53;19.53;;;8.10;99.90;;;;;;2610447;54;20130;-73
2023/04/22 02:59:17;;;;;;;25.17;19.07;;;8.10;99.90;;;;;;2610452;39;21171;-73
2023/04/22 03:02:35;;;;;;;25.80;19.40;;;8.10;99.90;;;;;;2610458;54;20435;-73
2023/04/22 03:05:01;;;;;;;29.63;21.27;;;8.10;99.90;;;;;;2610535;54;20521;-72
2023/04/22 03:10:48;;;;;;;28.87;20.80;;;8.20;99.90;;;;;;2610178;46;20398;-73
2023/04/22 03:16:36;;;;;;;25.67;21.90;;;8.20;99.90;;;;;;2609259;54;20255;-73
2023/04/22 03:22:23;;;;;;;25.83;21.87;;;8.20;99.90;;;;;;2609673;54;20135;-73
2023/04/22 03:28:11;;;;;;;31.50;21.37;;;8.20;99.90;;;;;;2610780;54;20130;-73
2023/04/22 03:33:59;;;;;;;28.50;20.97;;;8.20;99.90;;;;;;2611984;54;20135;-73
2023/04/22 03:39:46;;;;;;;30.00;21.03;;;8.20;99.90;;;;;;2612748;54;20142;-72
2023/04/22 03:45:34;;;;;;;27.00;22.17;;;8.20;99.90;;;;;;2613643;54;20641;-73
2023/04/22 03:51:22;;;;;;;22.63;19.13;;;8.20;99.90;;;;;;2612337;54;20131;-73
2023/04/22 03:57:10;;;;;;;24.83;21.30;;;8.20;99.90;;;;;;2611416;54;20129;-73
2023/04/22 04:07:06;;;;;;;22.73;18.10;;;8.20;99.90;;;;;;2610175;54;20394;-73
2023/04/22 04:12:54;;;;;;;22.60;19.57;;;8.20;99.90;;;;;;2610896;54;20399;-72
2023/04/22 04:18:42;;;;;;;19.13;17.10;;;8.20;99.90;;;;;;2610296;54;20123;-72
2023/04/22 04:24:30;;;;;;;22.37;18.43;;;8.10;99.90;;;;;;2610495;54;20133;-72
2023/04/22 04:30:20;;;;;;;20.90;18.43;;;8.20;99.90;;;;;;2610481;54;20254;-73
2023/04/22 04:36:09;;;;;;;24.77;18.70;;;8.10;99.90;;;;;;2610539;54;20371;-73
2023/04/22 04:39:17;;;;;;;20.90;17.13;;;8.20;99.90;;;;;;2610035;54;20418;-73
2023/04/22 04:41:43;;;;;;;20.37;18.27;;;8.30;99.90;;;;;;2610778;54;21077;-68
2023/04/22 04:47:32;;;;;;;23.93;18.80;;;8.40;99.90;;;;;;2610150;54;20381;-69
2023/04/22 04:53:21;;;;;;;22.83;17.80;;;8.40;99.90;;;;;;2610237;54;21042;-68
2023/04/22 04:59:09;;;;;;;23.20;17.67;;;8.40;99.90;;;;;;2609573;54;20396;-69
2023/04/22 05:04:56;;;;;;;20.03;17.47;;;8.50;99.90;;;;;;2611003;54;20185;-69
2023/04/22 05:10:44;;;;;;;19.50;17.10;;;8.50;99.90;;;;;;2609911;54;20281;-68
2023/04/22 05:16:32;;;;;;;21.13;18.83;;;8.60;99.90;;;;;;2610393;54;20162;-68
2023/04/22 05:22:20;;;;;;;24.67;17.67;;;8.70;99.90;;;;;;2609692;54;20126;-69
2023/04/22 05:28:08;;;;;;;22.83;17.33;;;8.80;99.90;;;;;;2609930;54;20423;-68
2023/04/22 05:33:56;;;;;;;21.30;17.90;;;9.00;99.90;;;;;;2609844;54;20363;-72
2023/04/22 05:39:44;;;;;;;20.37;16.57;;;9.10;99.90;;;;;;2606831;54;20130;-70
2023/04/22 05:45:31;;;;;;;27.17;20.50;;;9.40;99.90;;;;;;2612101;54;20174;-69
2023/04/22 05:51:19;;;;;;;20.10;14.70;;;9.70;99.90;;;;;;2611983;54;20150;-70
2023/04/22 05:57:07;;;;;;;14.63;9.80;;;10.10;99.90;;;;;;2609812;54;20134;-67
2023/04/22 06:07:06;;;;;;;10.13;7.50;;;11.20;99.90;;;;;;2612637;46;20501;-68
2023/04/22 06:12:54;;;;;;;10.43;7.60;;;12.30;99.90;;;;;;2610531;54;20379;-68
2023/04/22 06:18:44;;;;;;;12.27;11.30;;;12.70;99.90;;;;;;2611041;54;20150;-67
2023/04/22 06:24:31;;;;;;;10.60;9.50;;;12.80;99.90;;;;;;2612372;54;20408;-67
2023/04/22 06:30:19;;;;;;;9.57;8.87;;;13.10;99.90;;;;;;2607886;54;20856;-68
2023/04/22 06:36:07;;;;;;;9.00;8.40;;;13.30;99.90;;;;;;2613609;54;20351;-67
2023/04/22 06:41:55;;;;;;;8.20;7.60;;;13.50;99.90;;;;;;2612087;54;20143;-68
2023/04/22 06:47:43;;;;;;;7.20;6.60;;;13.60;99.90;;;;;;2611398;54;20255;-67
2023/04/22 06:53:30;;;;;;;7.57;7.07;;;13.90;99.90;;;;;;2612898;54;20166;-67
2023/04/22 06:59:18;;;;;;;7.73;7.23;;;14.80;99.90;;;;;;2612907;39;20292;-67
2023/04/22 07:02:35;;;;;;;7.37;6.77;;;15.60;99.90;;;;;;2613385;54;20403;-67
2023/04/22 07:05:01;;;;;;;7.23;6.63;;;16.10;99.90;;;;;;2612973;47;20179;-67
2023/04/22 07:10:48;;;;;;;6.93;6.53;;;15.40;99.90;;;;;;2614482;54;20499;-67
2023/04/22 07:16:37;;;;;;;7.37;6.93;;;16.80;99.90;;;;;;2612216;54;20687;-68
2023/04/22 07:22:25;;;;;;;9.20;7.87;;;16.50;99.90;;;;;;2613615;39;20906;-67
2023/04/22 07:28:13;;;;;;;9.40;8.90;;;17.00;99.90;;;;;;2612799;54;20672;-66
2023/04/22 07:34:00;;;;;;;9.10;8.60;;;17.40;99.90;;;;;;2613135;54;20162;-67
2023/04/22 07:39:48;;;;;;;8.10;7.70;;;17.60;99.90;;;;;;2612565;54;20159;-67
2023/04/22 07:45:36;;;;;;;8.27;7.87;;;17.90;99.90;;;;;;2612289;54;20134;-67
2023/04/22 07:51:24;;;;;;;8.10;7.70;;;18.70;99.90;;;;;;2612739;54;20180;-66
2023/04/22 07:57:12;;;;;;;8.93;8.30;;;19.10;99.90;;;;;;2613622;54;21053;-67
2023/04/22 08:07:05;;;;;;;8.33;7.90;;;18.40;86.50;;;;;;2611410;54;20419;-67
2023/04/22 08:12:53;;;;;;;8.23;7.73;;;19.30;74.90;;;;;;2610616;54;20500;-68
2023/04/22 08:18:41;;;;;;;8.23;7.83;;;19.40;58.10;;;;;;2613255;54;20178;-67
2023/04/22 08:24:28;;;;;;;8.63;8.23;;;20.60;54.90;;;;;;2613094;54;20134;-67
2023/04/22 08:30:17;;;;;;;9.70;9.00;;;19.50;46.20;;;;;;2611248;54;20138;-68
2023/04/22 08:36:05;;;;;;;9.47;8.83;;;20.40;41.00;;;;;;2613342;54;20949;-67
2023/04/22 08:41:54;;;;;;;9.00;8.50;;;20.80;39.30;;;;;;2610313;54;20395;-67
2023/04/22 08:47:42;;;;;;;9.23;8.73;;;20.30;36.10;;;;;;2613082;54;20394;-67
2023/04/22 08:53:30;;;;;;;9.33;8.83;;;20.30;33.00;;;;;;2613132;54;20134;-67
2023/04/22 08:59:19;;;;;;;10.10;9.50;;;21.10;31.30;;;;;;2612607;54;20427;-68
2023/04/22 09:09:35;;;;;;;9.50;8.97;;;21.00;26.00;;;;;;2614026;54;20407;-66
2023/04/22 09:15:24;;;;;;;10.03;9.43;;;20.70;28.00;;;;;;2613283;54;20443;-68
2023/04/22 09:21:12;;;;;;;10.47;9.73;;;20.90;27.50;;;;;;2612592;54;20431;-67
2023/04/22 09:27:02;;;;;;;10.10;9.60;;;20.80;23.80;;;;;;2606371;54;20434;-67
2023/04/22 09:32:54;;;;;;;10.33;9.83;;;21.10;22.00;;;;;;2613563;54;20944;-66
2023/04/22 09:45:11;;;;;;;10.20;9.70;;;20.90;22.50;;;;;;2611430;54;21703;-67
2023/04/22 09:50:59;;;;;;;10.97;10.33;;;21.30;20.90;;;;;;2609643;54;20127;-66
2023/04/22 09:56:50;;;;;;;10.67;10.17;;;21.80;21.00;;;;;;2609194;54;20154;-68
2023/04/22 10:02:37;;;;;;;10.60;10.10;;;20.50;19.10;;;;;;2613111;54;20439;-67
2023/04/22 10:08:25;;;;;;;10.60;10.00;;;21.50;18.70;;;;;;2608362;54;20129;-70
2023/04/22 10:14:14;;;;;;;10.93;10.33;;;21.30;19.60;;;;;;2612513;54;21426;-68
2023/04/22 10:20:06;;;;;;;10.93;10.20;;;21.20;20.70;;;;;;2612030;54;20442;-68
2023/04/22 10:25:55;;;;;;;10.30;9.80;;;22.30;19.80;;;;;;2610300;54;20406;-67
2023/04/22 10:35:43;;;;;;;11.30;10.70;;;22.50;15.90;;;;;;2608216;54;20398;-67
2023/04/22 10:38:09;;;;;;;10.90;10.30;;;22.70;15.60;;;;;;2607974;54;20591;-67
2023/04/22 10:50:44;;;;;;;11.83;11.23;;;23.30;11.00;;;;;;2608230;54;20504;-68
2023/04/22 10:56:32;;;;;;;11.43;10.73;;;24.40;10.90;;;;;;2607296;54;20130;-67
2023/04/22 11:02:20;;;;;;;11.20;10.60;;;24.50;10.60;;;;;;2610780;54;21080;-70
2023/04/22 11:08:12;;;;;;;11.63;11.03;;;24.20;8.60;;;;;;2607667;54;20438;-68
2023/04/22 11:11:20;;;;;;;11.10;10.43;;;24.20;9.50;;;;;;2610395;47;20558;-68
2023/04/22 11:17:08;;;;;;;11.80;11.20;;;25.10;9.00;;;;;;2610000;54;20410;-67
2023/04/22 11:22:56;;;;;;;11.20;10.67;;;25.00;8.00;;;;;;2612642;54;20263;-68
2023/04/22 11:28:47;;;;;;;12.40;11.70;;;24.20;7.90;;;;;;2609493;39;20800;-68
2023/04/22 11:34:35;;;;;;;11.67;10.97;;;23.70;9.40;;;;;;2608868;54;20387;-68
2023/04/22 11:40:30;;;;;;;12.37;11.63;;;22.60;9.70;;;;;;2609525;54;20138;-68
2023/04/22 11:52:53;;;;;;;11.87;11.27;;;22.80;14.70;;;;;;2609757;54;20391;-69
2023/04/22 11:58:41;;;;;;;12.50;11.80;;;21.70;15.50;;;;;;2610452;54;20439;-67
2023/04/22 12:04:28;;;;;;;13.30;12.50;;;22.10;16.20;;;;;;2614243;54;20127;-67
2023/04/22 12:13:40;;;;;;;12.67;11.90;;;23.40;14.30;;;;;;2610153;54;20419;-69
2023/04/22 12:19:28;;;;;;;11.87;11.37;;;23.70;13.00;;;;;;2610388;54;21410;-69
2023/04/22 12:25:17;;;;;;;12.23;11.63;;;22.60;15.10;;;;;;2610013;54;20178;-68
2023/04/22 12:31:06;;;;;;;12.90;12.20;;;21.90;15.00;;;;;;2610335;54;20391;-68
2023/04/22 12:36:55;;;;;;;13.40;12.50;;;21.70;14.90;;;;;;2610578;54;20937;-68
2023/04/22 12:42:42;;;;;;;11.90;11.30;;;22.00;15.40;;;;;;2610499;54;20379;-67
2023/04/22 12:48:30;;;;;;;13.20;12.50;;;22.30;14.60;;;;;;2610098;54;20127;-68
2023/04/22 12:54:19;;;;;;;12.50;11.87;;;23.60;11.90;;;;;;2610691;54;20398;-68
2023/04/22 13:00:13;;;;;;;13.30;12.60;;;23.50;10.40;;;;;;2610362;54;20411;-68
2023/04/22 13:06:01;;;;;;;13.50;12.60;;;24.10;11.30;;;;;;2612010;54;20429;-68
2023/04/22 13:09:07;;;;;;;12.73;12.10;;;24.50;9.90;;;;;;2609337;54;20502;-68
2023/04/22 13:11:32;;;;;;;13.43;12.73;;;24.00;9.90;;;;;;2609909;54;20960;-68
2023/04/22 13:17:20;;;;;;;14.47;13.57;;;24.00;10.40;;;;;;2609574;54;20147;-67
2023/04/22 13:23:09;;;;;;;13.00;12.30;;;23.70;11.30;;;;;;2609789;54;20367;-68
2023/04/22 13:28:57;;;;;;;13.37;12.70;;;23.20;13.30;;;;;;2610239;46;21002;-67
2023/04/22 13:34:45;;;;;;;12.13;11.43;;;22.90;14.20;;;;;;2609627;54;20216;-68
2023/04/22 13:40:32;;;;;;;12.47;11.80;;;23.70;14.40;;;;;;2610075;54;20363;-68
2023/04/22 13:46:20;;;;;;;12.37;11.67;;;23.30;13.00;;;;;;2609601;54;20284;-68
2023/04/22 13:52:08;;;;;;;12.90;12.20;;;21.90;16.50;;;;;;2609731;54;20130;-68
2023/04/22 13:57:55;;;;;;;14.10;13.23;;;22.30;18.00;;;;;;2610128;54;20143;-68
2023/04/22 14:03:44;;;;;;;13.60;12.80;;;22.40;19.50;;;;;;2609576;54;20550;-68
2023/04/22 14:13:37;;;;;;;13.53;12.63;;;21.70;22.00;;;;;;2609956;54;20918;-69
2023/04/22 14:19:26;;;;;;;12.23;11.63;;;20.90;25.30;;;;;;2613146;54;20387;-68
2023/04/22 14:25:13;;;;;;;11.97;11.27;;;20.00;37.40;;;;;;2606851;54;20371;-67
2023/04/22 14:31:01;;;;;;;11.30;10.80;;;19.70;38.80;;;;;;2608657;54;20122;-68
2023/04/22 14:36:49;;;;;;;10.43;9.93;;;19.20;52.40;;;;;;2609877;54;20426;-76
2023/04/22 14:42:38;;;;;;;10.97;10.37;;;18.80;65.00;;;;;;2609075;54;20154;-76
2023/04/22 14:48:29;;;;;;;10.63;10.13;;;18.90;75.80;;;;;;2609537;54;20406;-76
2023/04/22 14:54:17;;;;;;;11.30;10.40;;;19.10;80.20;;;;;;2609370;54;20390;-77
2023/04/22 15:00:07;;;;;;;10.83;10.23;;;18.80;86.50;;;;;;2609345;54;20141;-76
2023/04/22 15:05:54;;;;;;;9.30;8.80;;;18.90;91.50;;;;;;2610098;39;20964;-76
2023/04/22 15:09:06;;;;;;;10.17;9.53;;;18.50;94.70;;;;;;2609512;54;20403;-76
2023/04/22 15:11:31;;;;;;;10.70;10.00;;;18.40;95.10;;;;;;2608360;54;22558;-77
2023/04/22 15:17:20;;;;;;;10.93;10.10;;;18.40;98.80;;;;;;2608459;54;20947;-77
2023/04/22 15:23:07;;;;;;;10.43;9.83;;;18.30;99.10;;;;;;2609669;54;20395;-77
2023/04/22 15:28:55;;;;;;;10.07;9.33;;;18.20;99.90;;;;;;2609557;54;20154;-75
2023/04/22 15:34:43;;;;;;;10.30;9.47;;;18.20;99.90;;;;;;2609357;54;20147;-76
2023/04/22 15:40:31;;;;;;;10.70;9.80;;;18.40;99.90;;;;;;2613143;54;20134;-76
2023/04/22 15:46:20;;;;;;;10.43;9.70;;;18.20;99.90;;;;;;2611686;54;20162;-76
2023/04/22 15:52:08;;;;;;;11.17;10.60;;;18.10;99.90;;;;;;2612699;54;21187;-76
2023/04/22 15:57:55;;;;;;;10.20;9.70;;;18.10;99.90;;;;;;2612453;54;20387;-77
2023/04/22 16:03:44;;;;;;;10.60;9.90;;;18.60;99.90;;;;;;2613367;54;20138;-76
2023/04/22 16:13:37;;;;;;;10.27;9.57;;;18.40;99.90;;;;;;2613683;54;20355;-76
2023/04/22 16:19:25;;;;;;;9.90;9.30;;;18.40;99.90;;;;;;2614406;54;20400;-76
2023/04/22 16:25:13;;;;;;;9.87;9.30;;;18.30;97.80;;;;;;2612970;54;20166;-76
2023/04/22 16:31:01;;;;;;;9.93;9.43;;;18.00;99.60;;;;;;2614072;54;20143;-76
2023/04/22 16:34:04;;;;;;;10.00;9.40;;;18.00;99.90;;;;;;2615052;39;20779;-77
2023/04/22 16:36:31;;;;;;;7.67;7.27;;;17.80;99.90;;;;;;2614386;54;20399;-76
2023/04/22 16:42:19;;;;;;;7.03;6.53;;;17.50;99.90;;;;;;2613716;54;20949;-76
2023/04/22 16:48:06;;;;;;;7.80;7.07;;;17.00;99.90;;;;;;2614164;54;20372;-77
2023/04/22 16:53:54;;;;;;;5.90;5.50;;;16.80;99.90;;;;;;2614502;46;20157;-77
2023/04/22 16:59:42;;;;;;;6.60;4.90;;;16.70;99.90;;;;;;2611829;54;20431;-77
2023/04/22 17:05:30;;;;;;;4.80;3.30;;;16.40;99.90;;;;;;2610974;54;20151;-75
2023/04/22 17:11:18;;;;;;;5.00;3.60;;;16.10;99.90;;;;;;2611640;54;20221;-76
2023/04/22 17:17:05;;;;;;;4.10;3.70;;;15.60;99.90;;;;;;2610653;54;20356;-75
2023/04/22 17:22:53;;;;;;;5.40;4.53;;;15.30;99.90;;;;;;2613785;54;20602;-74
2023/04/22 17:28:41;;;;;;;6.40;5.50;;;15.10;99.90;;;;;;2612635;54;20174;-75
2023/04/22 17:34:30;;;;;;;10.27;4.53;;;14.90;99.90;;;;;;2614066;54;20234;-74
2023/04/22 17:40:18;;;;;;;6.87;4.47;;;14.70;99.90;;;;;;2613912;54;20422;-75
2023/04/22 17:46:05;;;;;;;10.83;5.63;;;14.50;99.90;;;;;;2613733;54;20446;-74
2023/04/22 17:51:53;;;;;;;8.77;5.00;;;14.40;99.90;;;;;;2614167;54;20133;-74
2023/04/22 17:57:41;;;;;;;6.47;5.20;;;14.30;99.90;;;;;;2613361;54;20158;-74
2023/04/22 18:03:29;;;;;;;7.80;6.47;;;14.30;99.90;;;;;;2613534;54;20153;-73
2023/04/22 18:13:38;;;;;;;8.97;6.77;;;14.20;99.90;;;;;;2611894;54;20424;-74
2023/04/22 18:19:25;;;;;;;9.33;6.27;;;14.20;99.90;;;;;;2610363;54;20439;-73
2023/04/22 18:25:13;;;;;;;6.13;5.43;;;14.10;99.90;;;;;;2610904;46;20185;-74
2023/04/22 18:31:02;;;;;;;6.67;5.70;;;14.10;99.90;;;;;;2612058;54;20953;-74
2023/04/22 18:36:50;;;;;;;9.60;6.50;;;14.10;99.90;;;;;;2610760;54;20399;-75
2023/04/22 18:42:38;;;;;;;6.67;5.23;;;14.00;99.90;;;;;;2611527;54;20363;-75
2023/04/22 18:48:25;;;;;;;8.60;5.53;;;14.00;99.90;;;;;;2611282;54;20130;-75
2023/04/22 18:54:14;;;;;;;9.13;6.30;;;14.00;99.90;;;;;;2611709;54;20123;-74
2023/04/22 19:00:01;;;;;;;7.97;6.17;;;14.00;99.90;;;;;;2611971;54;20881;-76
2023/04/22 19:05:49;;;;;;;6.90;6.07;;;13.90;99.90;;;;;;2614299;54;20189;-75
2023/04/22 19:11:49;;;;;;;8.07;7.20;;;13.90;99.90;;;;;;2612055;54;20139;-74
2023/04/22 19:17:37;;;;;;;25.97;16.07;;;13.90;99.90;;;;;;2611439;54;20167;-75
2023/04/22 19:23:24;;;;;;;26.17;19.47;;;13.90;99.90;;;;;;2612243;54;20363;-75
2023/04/22 19:29:14;;;;;;;65.27;51.37;;;13.90;99.90;;;;;;2609451;46;20170;-75
2023/04/22 19:35:02;;;;;;;17.10;13.20;;;13.90;99.90;;;;;;2610545;54;21069;-74
2023/04/22 19:40:50;;;;;;;10.23;9.23;;;13.90;99.90;;;;;;2609537;54;20905;-75
2023/04/22 19:46:37;;;;;;;9.30;8.30;;;13.90;99.90;;;;;;2611779;54;20142;-75
2023/04/22 19:52:25;;;;;;;12.03;8.57;;;14.00;99.90;;;;;;2614191;54;20154;-74
2023/04/22 19:58:13;;;;;;;9.73;8.70;;;13.90;99.90;;;;;;2613342;54;20897;-74
2023/04/22 20:04:02;;;;;;;9.00;8.07;;;13.50;99.90;;;;;;2613667;39;21077;-75
2023/04/22 20:13:39;;;;;;;13.10;9.47;;;13.20;99.90;;;;;;2613037;54;20379;-75
2023/04/22 20:19:27;;;;;;;10.97;9.67;;;13.10;99.90;;;;;;2612090;54;20435;-74
2023/04/22 20:25:18;;;;;;;13.30;11.33;;;13.00;99.90;;;;;;2610790;54;20438;-75
2023/04/22 20:31:06;;;;;;;14.00;12.50;;;13.00;99.90;;;;;;2609415;54;20391;-75
2023/04/22 20:36:54;;;;;;;19.00;13.63;;;12.90;99.90;;;;;;2613997;54;20275;-75
2023/04/22 20:42:42;;;;;;;17.63;14.80;;;12.90;99.90;;;;;;2613661;54;21022;-75
2023/04/22 20:48:30;;;;;;;20.90;16.63;;;12.90;99.90;;;;;;2612451;54;20126;-75
2023/04/22 20:54:17;;;;;;;24.50;19.50;;;12.90;99.90;;;;;;2609720;54;20125;-75
2023/04/22 21:00:06;;;;;;;32.93;22.87;;;12.90;99.90;;;;;;2609717;54;20262;-75
2023/04/22 21:05:55;;;;;;;28.30;21.97;;;12.80;99.90;;;;;;2609970;54;20419;-75
2023/04/22 21:09:07;;;;;;;29.37;24.13;;;12.80;99.90;;;;;;2610360;54;20799;-75
2023/04/22 21:11:33;;;;;;;31.20;24.00;;;12.80;99.90;;;;;;2610158;54;21331;-75
2023/04/22 21:17:26;;;;;;;34.67;23.70;;;12.70;99.90;;;;;;2612120;54;20411;-76
2023/04/22 21:23:14;;;;;;;29.17;23.10;;;12.60;99.90;;;;;;2613540;54;20354;-75
2023/04/22 21:29:02;;;;;;;34.47;26.93;;;12.60;99.90;;;;;;2614221;39;20789;-75
2023/04/22 21:34:50;;;;;;;49.33;36.10;;;12.50;99.90;;;;;;2613160;54;20382;-75
2023/04/22 21:40:38;;;;;;;53.27;35.13;;;12.30;99.90;;;;;;2608493;46;20274;-76
2023/04/22 21:46:25;;;;;;;45.07;33.23;;;12.10;99.90;;;;;;2609590;54;20143;-75
2023/04/22 21:52:13;;;;;;;35.73;23.70;;;11.90;99.90;;;;;;2607271;54;20134;-74
2023/04/22 21:58:01;;;;;;;34.63;25.90;;;11.70;99.90;;;;;;2609553;46;20174;-75
2023/04/22 22:03:48;;;;;;;35.00;26.30;;;11.60;99.90;;;;;;2608075;39;20724;-76
2023/04/22 22:13:39;;;;;;;35.67;27.57;;;11.50;99.90;;;;;;2608249;54;20402;-75
2023/04/22 22:19:27;;;;;;;39.93;27.93;;;11.50;99.90;;;;;;2609640;54;21104;-76
2023/04/22 22:25:15;;;;;;;37.57;26.00;;;11.50;99.90;;;;;;2609011;54;20419;-76
2023/04/22 22:31:02;;;;;;;39.33;26.20;;;11.40;99.90;;;;;;2610122;54;20446;-76
2023/04/22 22:36:50;;;;;;;40.87;28.50;;;11.30;99.90;;;;;;2610434;54;20653;-76
2023/04/22 22:42:38;;;;;;;42.20;27.60;;;11.30;99.90;;;;;;2608644;54;20122;-77
2023/04/22 22:48:26;;;;;;;39.23;27.80;;;11.20;99.90;;;;;;2607447;54;20162;-76
2023/04/22 22:54:14;;;;;;;43.90;31.20;;;11.10;99.90;;;;;;2609403;54;20114;-77
2023/04/22 23:00:02;;;;;;;45.43;32.30;;;10.90;99.90;;;;;;2609757;54;20908;-78
2023/04/22 23:05:50;;;;;;;54.23;34.00;;;10.70;99.90;;;;;;2609912;54;20402;-76
2023/04/22 23:09:06;;;;;;;45.07;30.47;;;10.80;99.90;;;;;;2608842;54;20972;-76
2023/04/22 23:11:32;;;;;;;48.17;32.73;;;10.70;99.90;;;;;;2609059;47;20179;-77
2023/04/22 23:17:21;;;;;;;50.70;32.50;;;10.70;99.90;;;;;;2609954;54;20270;-77
2023/04/22 23:23:10;;;;;;;51.83;35.00;;;10.60;99.90;;;;;;2609351;54;20375;-76
2023/04/22 23:28:57;;;;;;;47.03;30.50;;;10.60;99.90;;;;;;2609375;54;20424;-75
2023/04/22 23:34:48;;;;;;;51.77;33.40;;;10.60;99.90;;;;;;2612226;39;20508;-76
2023/04/22 23:40:36;;;;;;;56.00;35.27;;;10.60;99.90;;;;;;2611812;54;20367;-77
2023/04/22 23:46:24;;;;;;;58.17;37.20;;;10.60;99.90;;;;;;2611661;54;20193;-77
2023/04/22 23:52:12;;;;;;;58.00;37.47;;;10.50;99.90;;;;;;2609841;54;20374;-77
2023/04/22 23:58:00;;;;;;;59.40;36.77;;;10.40;99.90;;;;;;2609559;54;20391;-78
